Time;durP1;ratioP1;P1;durP2;ratioP2;P2;SDS_P1;SDS_P2;PMS_P1;PMS_P2;Temp;Humidity;BMP_temperature;BMP_pressure;BME280_temperature;BME280_humidity;BME280_pressure;Samples;Min_cycle;Max_cycle;Signal;HPM_P1;HPM_P2
2022/08/01 00:01:22;;;;;;;7.07;5.97;;;20.50;99.90;;;;;;5108040;28;20092;-34
2022/08/01 00:03:47;;;;;;;8.20;7.40;;;20.40;99.90;;;;;;5108235;28;20031;-34
2022/08/01 00:06:13;;;;;;;7.40;6.07;;;20.40;99.90;;;;;;5108419;28;20097;-35
2022/08/01 00:08:38;;;;;;;8.27;7.30;;;20.40;99.90;;;;;;5107764;28;20031;-35
2022/08/01 00:11:04;;;;;;;7.72;6.78;;;20.40;99.90;;;;;;5108627;28;20463;-34
2022/08/01 00:13:30;;;;;;;8.18;6.43;;;20.40;99.90;;;;;;5108543;28;20012;-36
2022/08/01 00:15:55;;;;;;;8.27;6.65;;;20.40;99.90;;;;;;5108014;28;20023;-36
2022/08/01 00:18:21;;;;;;;7.40;6.15;;;20.30;99.90;;;;;;5108617;28;20019;-34
2022/08/01 00:20:49;;;;;;;7.63;6.30;;;20.30;99.90;;;;;;5108348;28;20487;-35
2022/08/01 00:23:14;;;;;;;8.13;7.10;;;20.40;99.90;;;;;;5107989;28;20024;-34
2022/08/01 00:25:40;;;;;;;9.25;6.00;;;20.40;99.90;;;;;;5108381;28;20774;-34
2022/08/01 00:28:08;;;;;;;13.95;8.95;;;20.30;99.90;;;;;;5108746;28;20058;-34
2022/08/01 00:30:34;;;;;;;9.77;8.73;;;20.30;99.90;;;;;;5106731;28;20023;-35
2022/08/01 00:33:00;;;;;;;8.75;7.85;;;20.30;99.90;;;;;;5108349;28;20556;-36
2022/08/01 00:35:25;;;;;;;9.77;8.65;;;20.30;99.90;;;;;;5107104;28;20027;-34
2022/08/01 00:37:51;;;;;;;11.23;9.98;;;20.30;99.90;;;;;;5108105;28;20493;-34
2022/08/01 00:40:17;;;;;;;11.32;9.07;;;20.20;99.90;;;;;;5108437;28;20031;-36
2022/08/01 00:42:42;;;;;;;12.05;9.98;;;20.20;99.90;;;;;;5106907;28;20019;-34
2022/08/01 00:45:08;;;;;;;8.68;7.60;;;20.20;99.90;;;;;;5107634;28;20019;-35
2022/08/01 00:47:34;;;;;;;11.80;10.52;;;20.20;99.90;;;;;;5107818;28;20039;-34
2022/08/01 00:49:59;;;;;;;11.32;10.13;;;20.20;99.90;;;;;;5106499;28;20026;-36
2022/08/01 00:52:25;;;;;;;9.95;8.88;;;20.20;99.90;;;;;;5107504;28;20054;-34
2022/08/01 00:54:51;;;;;;;11.07;9.25;;;20.20;99.90;;;;;;5107674;28;20023;-34
2022/08/01 00:57:16;;;;;;;11.43;9.70;;;20.20;99.90;;;;;;5107718;28;20019;-34
2022/08/01 00:59:42;;;;;;;11.02;9.13;;;20.20;99.90;;;;;;5107465;28;20031;-35
2022/08/01 01:02:08;;;;;;;10.20;9.07;;;20.20;99.90;;;;;;5107743;28;20031;-34
2022/08/01 01:04:33;;;;;;;8.63;7.72;;;20.20;99.90;;;;;;5106573;28;20020;-33
2022/08/01 01:07:16;;;;;;;7.55;6.82;;;20.20;99.90;;;;;;5106758;28;20020;-35
2022/08/01 01:10:02;;;;;;;7.72;6.40;;;20.20;99.90;;;;;;5107108;28;20490;-34
2022/08/01 01:12:41;;;;;;;8.20;6.70;;;20.30;99.90;;;;;;5102948;28;20055;-35
2022/08/01 01:15:16;;;;;;;8.13;6.97;;;20.30;99.90;;;;;;5107874;28;20043;-36
2022/08/01 01:18:00;;;;;;;8.68;6.45;;;20.40;99.90;;;;;;5106741;28;20016;-36
2022/08/01 01:20:41;;;;;;;7.30;6.60;;;20.30;99.90;;;;;;5106902;28;20016;-35
2022/08/01 01:23:29;;;;;;;10.43;5.93;;;20.30;99.90;;;;;;5107293;28;20055;-35
2022/08/01 01:26:20;;;;;;;7.93;5.75;;;20.30;99.90;;;;;;5106050;28;20483;-35
2022/08/01 01:29:01;;;;;;;6.22;5.50;;;20.40;99.90;;;;;;5106620;28;20027;-35
2022/08/01 01:31:28;;;;;;;6.15;5.55;;;20.40;99.90;;;;;;5106488;28;20028;-35
2022/08/01 01:33:57;;;;;;;7.38;5.57;;;20.40;99.90;;;;;;5106327;28;20475;-35
2022/08/01 01:36:25;;;;;;;7.05;5.57;;;20.40;99.90;;;;;;5106936;28;20480;-35
2022/08/01 01:38:52;;;;;;;5.75;5.15;;;20.40;99.90;;;;;;5105985;28;20059;-34
2022/08/01 01:41:19;;;;;;;5.40;4.90;;;20.40;99.90;;;;;;5106861;28;20012;-33
2022/08/01 01:43:46;;;;;;;5.95;4.80;;;20.40;99.90;;;;;;5105694;28;20106;-35
2022/08/01 01:46:16;;;;;;;6.38;5.50;;;20.40;99.90;;;;;;5106093;28;20027;-34
2022/08/01 01:48:45;;;;;;;5.85;4.85;;;20.40;99.90;;;;;;5106783;28;20030;-35
2022/08/01 01:51:12;;;;;;;5.97;4.88;;;20.50;99.90;;;;;;5106720;28;20487;-35
2022/08/01 01:53:39;;;;;;;6.82;4.88;;;20.50;99.90;;;;;;5105694;28;20035;-34
2022/08/01 01:56:05;;;;;;;6.65;5.10;;;20.50;99.90;;;;;;5106124;28;20050;-35
2022/08/01 01:58:33;;;;;;;7.55;4.97;;;20.40;99.90;;;;;;5106181;28;20042;-33
2022/08/01 02:01:01;;;;;;;7.78;5.15;;;20.40;99.90;;;;;;5105536;28;20503;-35
2022/08/01 02:03:29;;;;;;;5.65;4.60;;;20.40;99.90;;;;;;5105054;28;20076;-35
2022/08/01 02:05:55;;;;;;;6.25;5.28;;;20.50;99.90;;;;;;5096479;28;20566;-34
2022/08/01 02:08:23;;;;;;;10.85;6.97;;;20.40;99.90;;;;;;5099798;28;20016;-34
2022/08/01 02:13:40;;;;;;;7.80;5.28;;;20.40;99.90;;;;;;5106735;28;20092;-33
2022/08/01 02:16:06;;;;;;;7.32;4.75;;;20.30;99.90;;;;;;5105363;28;20034;-33
2022/08/01 02:18:32;;;;;;;7.15;4.88;;;20.30;99.90;;;;;;5105621;28;20047;-33
2022/08/01 02:21:00;;;;;;;7.97;5.22;;;20.30;99.90;;;;;;5105471;28;20140;-35
2022/08/01 02:23:31;;;;;;;5.57;4.10;;;20.30;99.90;;;;;;5104807;28;20019;-35
2022/08/01 02:25:57;;;;;;;7.53;4.90;;;20.30;99.90;;;;;;5105909;28;20040;-34
2022/08/01 02:28:34;;;;;;;6.90;4.22;;;20.40;99.90;;;;;;5105752;28;20099;-35
2022/08/01 02:31:06;;;;;;;6.18;5.10;;;20.40;99.90;;;;;;5106387;28;20024;-35
2022/08/01 02:33:45;;;;;;;7.03;5.63;;;20.40;99.90;;;;;;5105541;28;20019;-34
2022/08/01 02:36:11;;;;;;;7.40;5.22;;;20.40;99.90;;;;;;5106244;28;20360;-35
2022/08/01 02:38:42;;;;;;;5.25;3.75;;;20.30;99.90;;;;;;5106010;28;20043;-34
2022/08/01 02:41:12;;;;;;;6.57;4.70;;;20.30;99.90;;;;;;5105774;28;20027;-34
2022/08/01 02:43:43;;;;;;;8.55;5.35;;;20.30;99.90;;;;;;5105267;28;20028;-35
2022/08/01 02:46:15;;;;;;;7.85;5.53;;;20.30;99.90;;;;;;5105595;28;20042;-36
2022/08/01 02:48:42;;;;;;;7.20;5.38;;;20.20;99.90;;;;;;5105547;28;20490;-33
2022/08/01 02:51:09;;;;;;;6.63;5.15;;;20.10;99.90;;;;;;5104976;28;20042;-34
2022/08/01 02:53:38;;;;;;;8.70;5.75;;;20.10;99.90;;;;;;5105742;28;20027;-35
2022/08/01 02:56:06;;;;;;;8.00;5.65;;;20.00;99.90;;;;;;5104974;28;20386;-34
2022/08/01 02:58:33;;;;;;;8.85;6.50;;;20.00;99.90;;;;;;5105220;28;20023;-35
2022/08/01 03:00:59;;;;;;;7.05;5.25;;;19.90;99.90;;;;;;5102266;28;20479;-35
2022/08/01 03:03:25;;;;;;;6.60;5.60;;;19.90;99.90;;;;;;5104903;28;20059;-35
2022/08/01 03:05:51;;;;;;;7.22;4.82;;;19.90;99.90;;;;;;5105240;28;20104;-35
2022/08/01 03:08:18;;;;;;;4.07;3.55;;;19.90;99.90;;;;;;5106378;28;20103;-35
2022/08/01 03:10:46;;;;;;;6.53;4.80;;;19.90;99.90;;;;;;5103681;28;20026;-36
2022/08/01 03:13:14;;;;;;;6.38;4.22;;;19.90;99.90;;;;;;5105771;28;20076;-34
2022/08/01 03:15:43;;;;;;;5.10;3.92;;;19.90;99.90;;;;;;5105535;28;20031;-34
2022/08/01 03:18:11;;;;;;;6.93;4.78;;;20.00;99.90;;;;;;5105302;28;20034;-34
2022/08/01 03:20:37;;;;;;;5.18;3.92;;;20.00;99.90;;;;;;5105475;28;20035;-35
2022/08/01 03:23:06;;;;;;;5.72;4.60;;;20.00;99.90;;;;;;5105523;28;20016;-33
2022/08/01 03:25:34;;;;;;;6.72;4.97;;;20.00;99.90;;;;;;5104255;28;20108;-34
2022/08/01 03:28:03;;;;;;;4.72;4.10;;;19.90;99.90;;;;;;5105885;28;20059;-35
2022/08/01 03:30:30;;;;;;;6.68;4.85;;;19.90;99.90;;;;;;5105178;28;20024;-35
2022/08/01 03:32:58;;;;;;;7.68;5.43;;;19.90;99.90;;;;;;5104824;28;20039;-36
2022/08/01 03:35:29;;;;;;;6.18;4.78;;;19.80;99.90;;;;;;5109272;28;20479;-34
2022/08/01 03:37:56;;;;;;;5.33;4.40;;;19.80;99.90;;;;;;5109311;28;20538;-37
2022/08/01 03:40:28;;;;;;;5.78;4.53;;;19.70;99.90;;;;;;5108561;28;20020;-35
2022/08/01 03:42:59;;;;;;;5.73;5.00;;;19.70;99.90;;;;;;5098904;28;20487;-35
2022/08/01 03:45:38;;;;;;;6.70;4.82;;;19.70;99.90;;;;;;5108481;28;20665;-36
2022/08/01 03:48:10;;;;;;;4.22;3.40;;;19.70;99.90;;;;;;5098680;28;20019;-34
2022/08/01 03:50:39;;;;;;;4.60;4.07;;;19.60;99.90;;;;;;5108985;28;20423;-34
2022/08/01 03:53:09;;;;;;;4.53;3.60;;;19.60;99.90;;;;;;5108033;28;20406;-35
2022/08/01 03:55:37;;;;;;;4.10;3.55;;;19.60;99.90;;;;;;5109409;28;20024;-35
2022/08/01 03:58:04;;;;;;;2.75;2.55;;;19.70;99.90;;;;;;5108832;28;20460;-36
2022/08/01 04:00:30;;;;;;;4.47;3.30;;;19.70;99.90;;;;;;5107926;28;20020;-35
2022/08/01 04:02:56;;;;;;;3.53;3.10;;;19.70;99.90;;;;;;5108858;28;20026;-35
2022/08/01 04:05:22;;;;;;;3.95;3.30;;;19.70;99.90;;;;;;5109266;28;20034;-35
2022/08/01 04:07:59;;;;;;;3.25;2.95;;;19.80;99.90;;;;;;5107762;28;20111;-34
2022/08/01 04:10:25;;;;;;;3.63;3.00;;;19.80;99.90;;;;;;5108745;28;20028;-35
2022/08/01 04:12:51;;;;;;;3.50;3.20;;;19.80;99.90;;;;;;5108454;28;20104;-35
2022/08/01 04:15:17;;;;;;;3.72;3.00;;;19.90;99.90;;;;;;5108599;28;20035;-35
2022/08/01 04:17:43;;;;;;;4.28;3.50;;;19.90;99.90;;;;;;5108881;28;20020;-35
2022/08/01 04:20:10;;;;;;;5.25;3.75;;;19.80;99.90;;;;;;5109232;28;20055;-34
2022/08/01 04:22:36;;;;;;;4.15;3.75;;;19.80;99.90;;;;;;5107466;28;20103;-34
2022/08/01 04:25:09;;;;;;;3.95;3.55;;;19.70;99.90;;;;;;5109215;28;20027;-35
2022/08/01 04:27:39;;;;;;;4.13;2.90;;;19.70;99.90;;;;;;5107803;28;20048;-34
2022/08/01 04:30:06;;;;;;;4.47;3.65;;;19.70;99.90;;;;;;5108782;28;20106;-34
2022/08/01 04:32:37;;;;;;;5.35;3.47;;;19.80;99.90;;;;;;5108410;28;20035;-35
2022/08/01 04:35:07;;;;;;;3.25;2.95;;;19.80;99.90;;;;;;5108338;28;20020;-35
2022/08/01 04:37:36;;;;;;;3.88;3.08;;;19.80;99.90;;;;;;5108709;28;20028;-34
2022/08/01 04:40:05;;;;;;;4.55;3.60;;;19.90;99.90;;;;;;5108919;28;20024;-34
2022/08/01 04:42:32;;;;;;;4.90;4.40;;;19.90;99.90;;;;;;5107235;28;20421;-35
2022/08/01 04:44:58;;;;;;;3.95;3.60;;;19.90;99.90;;;;;;5107544;28;20468;-34
2022/08/01 04:47:26;;;;;;;3.92;3.53;;;19.90;99.90;;;;;;5108029;28;20114;-36
2022/08/01 04:49:51;;;;;;;3.90;3.50;;;20.00;99.90;;;;;;5107663;28;20023;-35
2022/08/01 04:52:20;;;;;;;4.18;3.22;;;20.00;99.90;;;;;;5108080;28;20057;-35
2022/08/01 04:54:48;;;;;;;3.97;3.58;;;20.00;99.90;;;;;;5107813;28;20047;-34
2022/08/01 04:57:14;;;;;;;5.05;4.10;;;20.00;99.90;;;;;;5107426;28;20108;-37
2022/08/01 04:59:44;;;;;;;4.25;3.70;;;20.10;99.90;;;;;;5107028;28;20023;-36
2022/08/01 05:02:17;;;;;;;5.32;3.53;;;20.10;99.90;;;;;;5108630;28;20059;-36
2022/08/01 05:04:45;;;;;;;3.80;3.40;;;20.10;99.90;;;;;;5106296;28;20023;-36
2022/08/01 05:07:11;;;;;;;3.72;3.33;;;20.10;99.90;;;;;;5107837;28;20028;-35
2022/08/01 05:09:37;;;;;;;3.90;3.50;;;20.10;99.90;;;;;;5106742;28;20557;-34
2022/08/01 05:12:05;;;;;;;2.65;2.45;;;20.10;99.90;;;;;;5107243;28;20071;-35
2022/08/01 05:14:31;;;;;;;4.50;3.75;;;20.20;99.90;;;;;;5107849;28;20016;-34
2022/08/01 05:16:59;;;;;;;3.70;3.30;;;20.20;99.90;;;;;;5107106;28;20042;-35
2022/08/01 05:19:25;;;;;;;3.15;2.70;;;20.10;99.90;;;;;;5107109;28;20043;-35
2022/08/01 05:21:50;;;;;;;4.13;3.72;;;20.20;99.90;;;;;;5107741;28;20502;-35
2022/08/01 05:24:16;;;;;;;4.32;3.55;;;20.10;99.90;;;;;;5106423;28;20016;-35
2022/08/01 05:26:42;;;;;;;4.18;3.35;;;20.10;99.90;;;;;;5106699;28;20051;-35
2022/08/01 05:29:07;;;;;;;3.60;3.20;;;20.20;99.90;;;;;;5106814;28;20024;-33
2022/08/01 05:31:36;;;;;;;4.22;3.33;;;20.20;99.90;;;;;;5106509;28;20047;-33
2022/08/01 05:34:02;;;;;;;3.67;2.90;;;20.20;99.90;;;;;;5106913;28;20131;-35
2022/08/01 05:36:28;;;;;;;3.50;3.20;;;20.20;99.90;;;;;;5106043;27;20099;-34
2022/08/01 05:38:53;;;;;;;3.03;2.70;;;20.30;99.90;;;;;;5104554;28;20015;-35
2022/08/01 05:41:19;;;;;;;2.85;2.65;;;20.30;99.90;;;;;;5107232;28;20023;-36
2022/08/01 05:43:44;;;;;;;2.50;2.30;;;20.30;99.90;;;;;;5105767;28;20024;-34
2022/08/01 05:46:10;;;;;;;3.88;2.42;;;20.40;99.90;;;;;;5105537;28;20032;-36
2022/08/01 05:48:35;;;;;;;3.50;3.20;;;20.40;99.90;;;;;;5103039;28;20027;-35
2022/08/01 05:51:01;;;;;;;3.00;2.70;;;20.40;99.90;;;;;;5105166;28;20035;-36
2022/08/01 05:53:27;;;;;;;5.00;3.63;;;20.40;99.90;;;;;;5104845;28;20023;-34
2022/08/01 05:55:52;;;;;;;3.50;3.20;;;20.30;99.90;;;;;;5104866;28;20026;-35
2022/08/01 05:58:18;;;;;;;3.65;2.53;;;20.30;99.90;;;;;;5104870;28;20386;-34
2022/08/01 06:00:44;;;;;;;3.15;2.38;;;20.20;99.90;;;;;;5103991;28;20055;-35
2022/08/01 06:03:11;;;;;;;2.40;2.20;;;20.20;99.90;;;;;;5105752;28;20387;-35
2022/08/01 06:05:36;;;;;;;1.85;1.75;;;20.30;99.90;;;;;;5105073;28;20047;-34
2022/08/01 06:08:02;;;;;;;2.17;1.75;;;20.30;99.90;;;;;;5104731;28;20019;-35
2022/08/01 06:10:28;;;;;;;2.05;1.50;;;20.30;99.90;;;;;;5104569;28;20028;-35
2022/08/01 06:12:53;;;;;;;1.65;1.40;;;20.30;99.90;;;;;;5102853;28;20027;-35
2022/08/01 06:15:19;;;;;;;2.13;1.50;;;20.30;99.90;;;;;;5104354;28;20107;-35
2022/08/01 06:17:44;;;;;;;1.80;1.25;;;20.40;99.90;;;;;;5104379;28;20035;-34
2022/08/01 06:20:10;;;;;;;1.63;1.10;;;20.40;99.90;;;;;;5105219;28;20092;-35
2022/08/01 06:22:36;;;;;;;1.17;1.00;;;20.50;99.90;;;;;;5104714;28;20130;-35
2022/08/01 06:25:01;;;;;;;1.17;1.08;;;20.50;99.90;;;;;;5105438;28;20387;-33
2022/08/01 06:27:27;;;;;;;1.10;1.00;;;20.50;99.90;;;;;;5105305;28;20044;-34
2022/08/01 06:29:56;;;;;;;1.50;0.90;;;20.60;99.90;;;;;;5106207;28;20205;-35
2022/08/01 06:32:22;;;;;;;1.08;1.08;;;20.60;99.90;;;;;;5105415;28;20035;-36
2022/08/01 06:34:48;;;;;;;0.80;0.80;;;20.60;99.90;;;;;;5105352;28;20032;-34
2022/08/01 06:37:14;;;;;;;1.02;1.00;;;20.60;99.90;;;;;;5105687;28;20028;-35
2022/08/01 06:39:40;;;;;;;1.08;0.98;;;20.60;99.90;;;;;;5105884;28;20035;-35
2022/08/01 06:42:05;;;;;;;0.80;0.80;;;20.60;99.90;;;;;;5104943;28;20059;-34
2022/08/01 06:44:31;;;;;;;1.17;0.70;;;20.60;99.90;;;;;;5105524;28;20050;-33
2022/08/01 06:46:58;;;;;;;0.85;0.82;;;20.60;99.90;;;;;;5105907;28;20028;-34
2022/08/01 06:49:24;;;;;;;1.73;0.80;;;20.70;99.90;;;;;;5105112;28;20016;-36
2022/08/01 06:51:49;;;;;;;1.38;0.98;;;20.70;99.90;;;;;;5105434;28;20039;-34
2022/08/01 06:54:16;;;;;;;1.27;0.95;;;20.80;99.90;;;;;;5106045;28;20016;-34
2022/08/01 06:56:41;;;;;;;0.80;0.80;;;20.80;99.90;;;;;;5104540;28;20055;-35
2022/08/01 06:59:07;;;;;;;0.90;0.90;;;20.90;99.90;;;;;;5105527;28;20055;-36
2022/08/01 07:01:32;;;;;;;0.90;0.90;;;20.90;99.90;;;;;;5105583;28;20360;-35
2022/08/01 07:03:58;;;;;;;1.08;0.82;;;20.90;99.90;;;;;;5104995;28;20498;-34
2022/08/01 07:06:24;;;;;;;1.08;1.00;;;21.00;99.90;;;;;;5105121;28;20032;-35
2022/08/01 07:08:51;;;;;;;0.80;0.80;;;21.00;99.90;;;;;;5106268;28;20047;-35
2022/08/01 07:11:16;;;;;;;1.17;0.82;;;21.00;99.90;;;;;;5109764;28;20127;-36
2022/08/01 07:13:42;;;;;;;0.65;0.63;;;21.10;99.90;;;;;;5108975;28;20118;-35
2022/08/01 07:16:07;;;;;;;0.70;0.70;;;21.20;99.90;;;;;;5109383;28;20019;-36
2022/08/01 07:18:33;;;;;;;0.73;0.60;;;21.30;99.90;;;;;;5108150;28;20351;-35
2022/08/01 07:20:59;;;;;;;0.73;0.50;;;21.30;99.90;;;;;;5109945;28;20436;-33
2022/08/01 07:23:24;;;;;;;0.85;0.85;;;21.30;99.90;;;;;;5108614;28;20034;-34
2022/08/01 07:25:52;;;;;;;0.90;0.70;;;21.30;99.90;;;;;;5109204;28;20054;-35
2022/08/01 07:28:17;;;;;;;0.88;0.80;;;21.40;99.90;;;;;;5109491;28;20075;-36
2022/08/01 07:30:44;;;;;;;0.82;0.82;;;21.40;99.90;;;;;;5108752;28;20528;-36
2022/08/01 07:33:10;;;;;;;0.80;0.80;;;21.30;99.90;;;;;;5109530;28;20389;-37
2022/08/01 07:35:38;;;;;;;1.17;0.77;;;21.20;99.90;;;;;;5097458;28;20338;-35
2022/08/01 07:38:04;;;;;;;0.90;0.90;;;21.20;99.90;;;;;;5107879;28;20422;-35
2022/08/01 07:40:30;;;;;;;0.85;0.80;;;21.20;99.90;;;;;;5108841;28;20023;-35
2022/08/01 07:42:55;;;;;;;1.30;0.93;;;21.20;99.90;;;;;;5109289;28;20104;-34
2022/08/01 07:45:21;;;;;;;1.17;0.90;;;21.10;99.90;;;;;;5107315;28;20104;-33
2022/08/01 07:47:49;;;;;;;0.85;0.75;;;21.20;99.90;;;;;;5108279;28;20032;-34
2022/08/01 07:50:15;;;;;;;1.20;0.70;;;21.20;99.90;;;;;;5108758;28;20395;-37
2022/08/01 07:52:42;;;;;;;0.90;0.80;;;21.20;99.90;;;;;;5107692;28;20067;-35
2022/08/01 07:55:08;;;;;;;1.52;0.88;;;21.30;99.90;;;;;;5108175;28;20024;-35
2022/08/01 07:57:34;;;;;;;1.60;1.00;;;21.30;99.90;;;;;;5108711;28;20031;-35
2022/08/01 08:00:00;;;;;;;1.20;0.82;;;21.30;99.90;;;;;;5107670;28;20043;-35
2022/08/01 08:02:26;;;;;;;1.23;0.90;;;21.40;99.90;;;;;;5108334;28;20459;-35
2022/08/01 08:04:52;;;;;;;0.88;0.80;;;21.50;99.90;;;;;;5108286;28;20043;-35
2022/08/01 08:07:17;;;;;;;1.08;0.80;;;21.60;99.90;;;;;;5108226;28;20019;-36
2022/08/01 08:09:43;;;;;;;0.82;0.70;;;21.60;99.90;;;;;;5108612;28;20016;-35
2022/08/01 08:12:08;;;;;;;0.60;0.60;;;21.70;99.90;;;;;;5108328;28;20543;-34
2022/08/01 08:14:34;;;;;;;0.88;0.70;;;21.60;99.90;;;;;;5106739;28;20574;-35
2022/08/01 08:17:00;;;;;;;0.93;0.70;;;21.60;99.90;;;;;;5108230;28;20051;-36
2022/08/01 08:19:25;;;;;;;0.77;0.70;;;21.60;99.90;;;;;;5107676;28;20012;-34
2022/08/01 08:21:51;;;;;;;0.73;0.73;;;21.60;99.90;;;;;;5107635;28;20038;-34
2022/08/01 08:24:19;;;;;;;1.67;0.88;;;21.60;99.90;;;;;;5107211;28;20030;-35
2022/08/01 08:26:47;;;;;;;0.80;0.80;;;21.60;99.90;;;;;;5105232;28;20086;-37
2022/08/01 08:29:12;;;;;;;1.27;0.82;;;21.60;99.90;;;;;;5108195;28;20047;-35
2022/08/01 08:31:38;;;;;;;1.73;0.90;;;21.70;99.90;;;;;;5107624;28;20071;-34
2022/08/01 08:34:03;;;;;;;1.08;0.95;;;21.70;99.90;;;;;;5107638;28;20474;-37
2022/08/01 08:36:29;;;;;;;1.52;0.82;;;21.80;99.90;;;;;;5107241;28;20023;-36
2022/08/01 08:38:54;;;;;;;1.20;1.00;;;22.00;99.90;;;;;;5107629;28;20069;-34
2022/08/01 08:41:21;;;;;;;1.23;1.00;;;22.10;99.90;;;;;;5107690;28;20019;-34
2022/08/01 08:43:47;;;;;;;0.90;0.80;;;22.20;99.90;;;;;;5107756;28;20048;-35
2022/08/01 08:46:14;;;;;;;1.17;0.80;;;22.30;99.90;;;;;;5107952;28;20062;-35
2022/08/01 08:48:40;;;;;;;1.23;0.93;;;22.40;99.90;;;;;;5107094;28;20493;-35
2022/08/01 08:51:08;;;;;;;1.65;0.88;;;22.40;99.90;;;;;;5107310;28;20049;-35
2022/08/01 08:53:35;;;;;;;1.23;0.70;;;22.40;99.90;;;;;;5107642;28;20718;-35
2022/08/01 08:56:02;;;;;;;1.77;0.70;;;22.40;99.90;;;;;;5106940;28;20047;-35
2022/08/01 08:58:28;;;;;;;0.95;0.70;;;22.40;99.90;;;;;;5107196;28;20368;-35
2022/08/01 09:00:54;;;;;;;1.45;1.20;;;22.40;99.90;;;;;;5107318;28;20367;-36
2022/08/01 09:03:20;;;;;;;1.50;1.00;;;22.30;99.90;;;;;;5106523;28;20383;-34
2022/08/01 09:05:46;;;;;;;1.10;1.00;;;22.10;99.90;;;;;;5106525;28;20028;-35
2022/08/01 09:08:12;;;;;;;1.27;1.15;;;21.90;99.90;;;;;;5108022;28;20026;-35
2022/08/01 09:10:37;;;;;;;0.82;0.80;;;21.70;99.90;;;;;;5106977;28;20028;-35
2022/08/01 09:13:12;;;;;;;1.95;1.27;;;21.40;99.90;;;;;;5106873;28;20073;-35
2022/08/01 09:15:55;;;;;;;2.58;1.30;;;21.20;99.90;;;;;;5106907;28;20039;-34
2022/08/01 09:18:27;;;;;;;3.72;1.40;;;20.90;99.90;;;;;;5107904;28;20023;-34
2022/08/01 09:21:17;;;;;;;2.75;1.10;;;20.80;99.90;;;;;;5107487;28;20036;-34
2022/08/01 09:23:47;;;;;;;1.42;0.95;;;20.60;99.90;;;;;;5105753;28;20030;-35
2022/08/01 09:26:19;;;;;;;1.58;1.13;;;20.50;99.90;;;;;;5107108;28;20047;-36
2022/08/01 09:28:46;;;;;;;1.30;1.10;;;20.50;99.90;;;;;;5106286;28;20027;-35
2022/08/01 09:31:18;;;;;;;1.48;1.15;;;20.50;99.90;;;;;;5105974;28;20035;-34
2022/08/01 09:33:58;;;;;;;1.55;1.00;;;20.50;99.90;;;;;;5106596;28;20476;-35
2022/08/01 09:36:26;;;;;;;3.42;1.25;;;20.40;99.90;;;;;;5106772;28;20064;-35
2022/08/01 09:38:53;;;;;;;1.73;1.30;;;20.40;99.90;;;;;;5105532;28;20069;-35
2022/08/01 09:41:30;;;;;;;3.25;1.40;;;20.40;99.90;;;;;;5107049;28;20114;-35
2022/08/01 09:43:56;;;;;;;2.17;1.42;;;20.20;99.90;;;;;;5105843;28;20530;-35
2022/08/01 09:46:22;;;;;;;1.98;1.65;;;20.20;99.90;;;;;;5106651;28;20080;-36
2022/08/01 09:49:02;;;;;;;3.10;1.30;;;20.20;99.90;;;;;;5105750;28;20020;-35
2022/08/01 09:51:37;;;;;;;1.98;1.45;;;20.30;99.90;;;;;;5105901;28;20038;-36
2022/08/01 09:54:04;;;;;;;2.30;1.33;;;20.30;99.90;;;;;;5106711;28;20078;-36
2022/08/01 09:56:45;;;;;;;2.47;1.77;;;20.30;99.90;;;;;;5106086;28;20043;-34
2022/08/01 09:59:11;;;;;;;3.17;1.67;;;20.30;99.90;;;;;;5105303;28;20020;-36
2022/08/01 10:01:46;;;;;;;3.08;1.70;;;20.30;99.90;;;;;;5106330;28;20076;-35
2022/08/01 10:04:17;;;;;;;4.28;1.80;;;20.30;99.90;;;;;;5106057;28;20106;-35
2022/08/01 10:06:46;;;;;;;2.35;1.63;;;20.30;99.90;;;;;;5105577;28;20120;-35
2022/08/01 10:09:13;;;;;;;2.40;1.60;;;20.40;99.90;;;;;;5106794;28;20102;-35
2022/08/01 10:11:42;;;;;;;2.20;1.75;;;20.60;99.90;;;;;;5106049;28;20098;-37
2022/08/01 10:14:08;;;;;;;3.78;1.77;;;20.80;99.90;;;;;;5105263;28;20076;-35
2022/08/01 10:16:36;;;;;;;3.47;1.80;;;20.80;99.90;;;;;;5106034;28;20055;-35
2022/08/01 10:19:04;;;;;;;2.38;1.60;;;20.90;99.90;;;;;;5105952;28;20361;-35
2022/08/01 10:21:33;;;;;;;4.15;1.67;;;21.00;99.90;;;;;;5105758;28;20379;-35
2022/08/01 10:24:01;;;;;;;3.25;1.80;;;21.10;99.90;;;;;;5105741;28;20078;-34
2022/08/01 10:26:29;;;;;;;4.40;1.80;;;21.20;99.90;;;;;;5101314;28;20098;-33
2022/08/01 10:28:55;;;;;;;4.45;2.00;;;21.30;99.90;;;;;;5089224;28;20083;-36
2022/08/01 10:31:20;;;;;;;4.55;1.90;;;21.40;99.90;;;;;;5105280;28;20034;-35
2022/08/01 10:33:46;;;;;;;4.70;2.00;;;21.60;99.90;;;;;;5104782;28;20035;-35
2022/08/01 10:36:12;;;;;;;3.95;2.00;;;21.70;99.90;;;;;;5106132;28;20035;-35
2022/08/01 10:38:39;;;;;;;3.28;1.80;;;21.80;99.90;;;;;;5105432;28;20023;-36
2022/08/01 10:41:05;;;;;;;3.47;1.70;;;21.90;99.90;;;;;;5104084;28;20433;-35
2022/08/01 10:43:31;;;;;;;3.60;1.70;;;22.00;99.90;;;;;;5105111;28;20028;-36
2022/08/01 10:45:57;;;;;;;4.72;2.15;;;22.10;99.90;;;;;;5105344;28;20027;-36
2022/08/01 10:48:31;;;;;;;5.78;2.20;;;22.10;99.90;;;;;;5105153;28;20438;-36
2022/08/01 10:51:00;;;;;;;2.47;1.73;;;22.20;99.90;;;;;;5105470;28;20138;-36
2022/08/01 10:53:27;;;;;;;3.08;1.60;;;22.30;99.90;;;;;;5105023;28;20039;-36
2022/08/01 10:55:56;;;;;;;2.15;1.55;;;22.30;99.90;;;;;;5104431;28;20050;-36
2022/08/01 10:58:36;;;;;;;3.10;1.40;;;22.30;99.90;;;;;;5106278;28;20451;-37
2022/08/01 11:01:21;;;;;;;2.67;1.42;;;22.30;99.90;;;;;;5105486;28;20023;-36
2022/08/01 11:04:07;;;;;;;1.67;1.20;;;22.40;99.90;;;;;;5105248;28;20088;-36
2022/08/01 11:06:33;;;;;;;2.25;1.73;;;22.40;99.90;;;;;;5105057;28;20023;-34
2022/08/01 11:09:04;;;;;;;2.22;1.58;;;22.30;99.90;;;;;;5105018;28;20238;-36
2022/08/01 11:11:30;;;;;;;2.35;1.40;;;22.30;99.90;;;;;;5105225;28;20028;-37
2022/08/01 11:14:14;;;;;;;1.83;1.17;;;22.30;99.90;;;;;;5105271;28;20026;-36
2022/08/01 11:16:40;;;;;;;2.67;1.58;;;22.30;99.90;;;;;;5104199;28;20498;-36
2022/08/01 11:19:08;;;;;;;2.50;1.60;;;22.40;99.90;;;;;;5105758;28;20035;-35
2022/08/01 11:21:52;;;;;;;2.33;1.50;;;22.50;99.90;;;;;;5105430;28;20168;-35
2022/08/01 11:24:45;;;;;;;7.13;2.13;;;22.50;99.90;;;;;;5105198;28;20027;-37
2022/08/01 11:27:21;;;;;;;3.05;1.60;;;22.60;99.90;;;;;;5105456;28;20069;-38
2022/08/01 11:30:09;;;;;;;4.38;1.38;;;22.80;99.90;;;;;;5084080;28;20020;-37
2022/08/01 11:32:49;;;;;;;4.97;1.80;;;22.90;99.90;;;;;;5102837;28;20031;-36
2022/08/01 11:35:15;;;;;;;2.50;1.42;;;23.00;99.90;;;;;;5105370;28;20471;-36
2022/08/01 11:37:41;;;;;;;2.05;1.40;;;23.00;99.90;;;;;;5104748;28;20023;-36
2022/08/01 11:40:24;;;;;;;2.30;1.50;;;23.00;99.90;;;;;;5105103;28;20024;-35
2022/08/01 11:43:12;;;;;;;2.25;1.38;;;23.10;99.90;;;;;;5104457;28;20039;-36
2022/08/01 11:45:57;;;;;;;4.53;1.55;;;23.10;99.90;;;;;;5086685;28;20036;-35
2022/08/01 11:48:25;;;;;;;6.82;1.77;;;23.10;99.90;;;;;;5105483;28;20042;-36
2022/08/01 11:50:52;;;;;;;2.33;1.27;;;23.00;99.90;;;;;;5104504;28;20078;-34
2022/08/01 11:53:19;;;;;;;3.25;1.60;;;23.00;99.90;;;;;;5105371;28;20209;-34
2022/08/01 11:55:50;;;;;;;4.32;1.40;;;23.00;99.90;;;;;;5106836;28;20028;-36
2022/08/01 11:58:21;;;;;;;3.00;1.38;;;23.00;99.90;;;;;;5108357;28;20035;-35
2022/08/01 12:00:57;;;;;;;2.20;1.30;;;23.00;99.90;;;;;;5088501;28;20028;-36
2022/08/01 12:03:27;;;;;;;3.30;1.42;;;23.00;99.90;;;;;;5104507;28;20043;-35
2022/08/01 12:05:53;;;;;;;6.60;1.33;;;22.90;99.90;;;;;;5107581;28;20055;-36
2022/08/01 12:08:32;;;;;;;3.72;1.15;;;22.90;99.90;;;;;;5108816;28;20024;-36
2022/08/01 12:10:59;;;;;;;4.22;1.50;;;22.90;99.90;;;;;;5109223;28;20050;-37
2022/08/01 12:13:25;;;;;;;4.00;1.13;;;22.80;99.90;;;;;;5107849;28;20119;-36
2022/08/01 12:15:50;;;;;;;7.07;1.75;;;22.90;99.90;;;;;;5108140;28;20126;-36
2022/08/01 12:18:16;;;;;;;4.13;1.40;;;23.00;99.90;;;;;;5108252;28;20483;-36
2022/08/01 12:20:44;;;;;;;3.13;1.30;;;23.00;99.90;;;;;;5108043;28;20015;-37
2022/08/01 12:23:12;;;;;;;1.77;1.10;;;23.10;99.90;;;;;;5108300;28;20024;-35
2022/08/01 12:25:43;;;;;;;2.85;1.63;;;23.30;99.90;;;;;;5108016;28;20035;-35
2022/08/01 12:28:10;;;;;;;3.10;1.20;;;23.40;99.90;;;;;;5108944;28;20024;-35
2022/08/01 12:30:36;;;;;;;1.58;1.27;;;23.60;99.90;;;;;;5107911;28;20016;-35
2022/08/01 12:33:04;;;;;;;3.38;1.40;;;23.70;99.90;;;;;;5107166;28;20035;-34
2022/08/01 12:35:30;;;;;;;2.50;1.30;;;23.70;99.90;;;;;;5108177;28;20019;-35
2022/08/01 12:38:00;;;;;;;3.67;1.42;;;23.80;99.90;;;;;;5107801;28;20395;-35
2022/08/01 12:40:28;;;;;;;2.65;1.27;;;23.80;99.90;;;;;;5106259;28;20032;-35
2022/08/01 12:43:04;;;;;;;2.47;1.50;;;23.80;99.90;;;;;;5107870;28;20027;-35
2022/08/01 12:45:33;;;;;;;1.90;1.17;;;23.60;99.90;;;;;;5104305;28;20032;-34
2022/08/01 12:48:00;;;;;;;2.15;1.10;;;23.60;99.90;;;;;;5107329;28;20019;-36
2022/08/01 12:50:32;;;;;;;2.83;1.23;;;23.50;99.90;;;;;;5107456;28;20399;-35
2022/08/01 12:52:58;;;;;;;2.47;1.23;;;23.40;99.90;;;;;;5108148;28;20432;-36
2022/08/01 12:55:25;;;;;;;2.50;1.10;;;23.40;99.90;;;;;;5106404;28;20128;-35